sensor_id;sensor_type;location;lat;lon;timestamp;P1;durP1;ratioP1;P2;durP2;ratioP2
59294;SDS011;45067;44.654;20.200;2023-03-13T00:00:59;53.58;;;27.35;;
59294;SDS011;45067;44.654;20.200;2023-03-13T00:03:26;60.38;;;30.50;;
59294;SDS011;45067;44.654;20.200;2023-03-13T00:05:55;59.78;;;30.65;;
59294;SDS011;45067;44.654;20.200;2023-03-13T00:08:22;62.72;;;28.70;;
59294;SDS011;45067;44.654;20.200;2023-03-13T00:13:55;56.58;;;29.60;;
59294;SDS011;45067;44.654;20.200;2023-03-13T00:16:21;69.10;;;32.00;;
59294;SDS011;45067;44.654;20.200;2023-03-13T00:18:51;70.75;;;31.20;;
59294;SDS011;45067;44.654;20.200;2023-03-13T00:21:26;64.80;;;31.42;;
59294;SDS011;45067;44.654;20.200;2023-03-13T00:23:52;66.03;;;30.88;;
59294;SDS011;45067;44.654;20.200;2023-03-13T00:26:20;59.20;;;29.92;;
59294;SDS011;45067;44.654;20.200;2023-03-13T00:28:46;64.70;;;30.42;;
59294;SDS011;45067;44.654;20.200;2023-03-13T00:31:14;65.00;;;31.50;;
59294;SDS011;45067;44.654;20.200;2023-03-13T00:33:44;62.65;;;31.58;;
59294;SDS011;45067;44.654;20.200;2023-03-13T00:36:11;59.72;;;30.23;;
59294;SDS011;45067;44.654;20.200;2023-03-13T00:38:38;78.30;;;31.05;;
59294;SDS011;45067;44.654;20.200;2023-03-13T00:44:08;66.53;;;31.98;;
59294;SDS011;45067;44.654;20.200;2023-03-13T00:46:34;65.70;;;32.25;;
59294;SDS011;45067;44.654;20.200;2023-03-13T00:49:00;65.97;;;33.30;;
59294;SDS011;45067;44.654;20.200;2023-03-13T00:51:26;71.68;;;36.03;;
59294;SDS011;45067;44.654;20.200;2023-03-13T00:53:53;72.40;;;35.20;;
59294;SDS011;45067;44.654;20.200;2023-03-13T00:56:19;72.45;;;34.92;;
59294;SDS011;45067;44.654;20.200;2023-03-13T00:58:46;76.00;;;36.80;;
59294;SDS011;45067;44.654;20.200;2023-03-13T01:01:14;71.10;;;33.20;;
59294;SDS011;45067;44.654;20.200;2023-03-13T01:03:41;73.90;;;33.88;;
59294;SDS011;45067;44.654;20.200;2023-03-13T01:06:08;61.88;;;30.52;;
59294;SDS011;45067;44.654;20.200;2023-03-13T01:08:35;59.80;;;28.58;;
59294;SDS011;45067;44.654;20.200;2023-03-13T01:14:06;51.42;;;26.60;;
59294;SDS011;45067;44.654;20.200;2023-03-13T01:16:33;47.60;;;23.45;;
59294;SDS011;45067;44.654;20.200;2023-03-13T01:19:00;65.28;;;30.92;;
59294;SDS011;45067;44.654;20.200;2023-03-13T01:21:27;51.78;;;25.52;;
59294;SDS011;45067;44.654;20.200;2023-03-13T01:23:53;60.85;;;30.05;;
59294;SDS011;45067;44.654;20.200;2023-03-13T01:29:23;58.42;;;29.65;;
59294;SDS011;45067;44.654;20.200;2023-03-13T01:31:49;58.67;;;29.40;;
59294;SDS011;45067;44.654;20.200;2023-03-13T01:34:15;56.67;;;27.27;;
59294;SDS011;45067;44.654;20.200;2023-03-13T01:36:45;58.15;;;29.83;;
59294;SDS011;45067;44.654;20.200;2023-03-13T01:39:14;60.65;;;30.65;;
59294;SDS011;45067;44.654;20.200;2023-03-13T01:41:41;67.22;;;32.70;;
59294;SDS011;45067;44.654;20.200;2023-03-13T01:44:20;66.68;;;35.05;;
59294;SDS011;45067;44.654;20.200;2023-03-13T01:46:47;68.28;;;32.97;;
59294;SDS011;45067;44.654;20.200;2023-03-13T01:49:20;67.55;;;33.47;;
59294;SDS011;45067;44.654;20.200;2023-03-13T01:51:54;66.65;;;33.38;;
59294;SDS011;45067;44.654;20.200;2023-03-13T01:54:29;72.53;;;35.70;;
59294;SDS011;45067;44.654;20.200;2023-03-13T01:57:02;68.93;;;35.28;;
59294;SDS011;45067;44.654;20.200;2023-03-13T01:59:30;68.22;;;32.67;;
59294;SDS011;45067;44.654;20.200;2023-03-13T02:01:58;61.85;;;32.17;;
59294;SDS011;45067;44.654;20.200;2023-03-13T02:04:26;70.63;;;32.35;;
59294;SDS011;45067;44.654;20.200;2023-03-13T02:06:56;63.47;;;30.27;;
59294;SDS011;45067;44.654;20.200;2023-03-13T02:09:23;64.07;;;30.25;;
59294;SDS011;45067;44.654;20.200;2023-03-13T02:11:52;66.88;;;31.83;;
59294;SDS011;45067;44.654;20.200;2023-03-13T02:14:20;64.85;;;32.83;;
59294;SDS011;45067;44.654;20.200;2023-03-13T02:16:47;61.30;;;33.00;;
59294;SDS011;45067;44.654;20.200;2023-03-13T02:19:23;67.18;;;34.05;;
59294;SDS011;45067;44.654;20.200;2023-03-13T02:22:01;63.58;;;33.28;;
59294;SDS011;45067;44.654;20.200;2023-03-13T02:24:37;69.18;;;34.22;;
59294;SDS011;45067;44.654;20.200;2023-03-13T02:27:04;64.30;;;33.28;;
59294;SDS011;45067;44.654;20.200;2023-03-13T02:29:31;65.15;;;31.88;;
59294;SDS011;45067;44.654;20.200;2023-03-13T02:31:57;56.28;;;29.42;;
59294;SDS011;45067;44.654;20.200;2023-03-13T02:34:27;55.50;;;30.58;;
59294;SDS011;45067;44.654;20.200;2023-03-13T02:36:54;51.50;;;27.27;;
59294;SDS011;45067;44.654;20.200;2023-03-13T02:39:21;54.42;;;28.35;;
59294;SDS011;45067;44.654;20.200;2023-03-13T02:41:48;54.20;;;28.05;;
59294;SDS011;45067;44.654;20.200;2023-03-13T02:44:15;49.00;;;25.23;;
59294;SDS011;45067;44.654;20.200;2023-03-13T02:46:48;55.95;;;28.90;;
59294;SDS011;45067;44.654;20.200;2023-03-13T02:49:24;60.22;;;30.38;;
59294;SDS011;45067;44.654;20.200;2023-03-13T02:51:51;56.30;;;29.27;;
59294;SDS011;45067;44.654;20.200;2023-03-13T02:54:19;54.38;;;28.02;;
59294;SDS011;45067;44.654;20.200;2023-03-13T02:59:49;51.50;;;27.42;;
59294;SDS011;45067;44.654;20.200;2023-03-13T03:02:15;52.85;;;27.48;;
59294;SDS011;45067;44.654;20.200;2023-03-13T03:04:41;50.05;;;25.95;;
59294;SDS011;45067;44.654;20.200;2023-03-13T03:07:07;47.63;;;26.15;;
59294;SDS011;45067;44.654;20.200;2023-03-13T03:09:33;50.22;;;27.90;;
59294;SDS011;45067;44.654;20.200;2023-03-13T03:11:59;54.60;;;27.95;;
59294;SDS011;45067;44.654;20.200;2023-03-13T03:14:25;47.92;;;26.20;;
59294;SDS011;45067;44.654;20.200;2023-03-13T03:16:51;56.80;;;29.17;;
59294;SDS011;45067;44.654;20.200;2023-03-13T03:19:17;54.47;;;28.83;;
59294;SDS011;45067;44.654;20.200;2023-03-13T03:21:43;59.22;;;29.38;;
59294;SDS011;45067;44.654;20.200;2023-03-13T03:24:09;59.90;;;29.92;;
59294;SDS011;45067;44.654;20.200;2023-03-13T03:29:39;65.38;;;29.98;;
59294;SDS011;45067;44.654;20.200;2023-03-13T03:32:05;56.58;;;30.67;;
59294;SDS011;45067;44.654;20.200;2023-03-13T03:34:31;64.70;;;29.70;;
59294;SDS011;45067;44.654;20.200;2023-03-13T03:36:57;57.08;;;30.27;;
59294;SDS011;45067;44.654;20.200;2023-03-13T03:39:23;54.60;;;29.40;;
59294;SDS011;45067;44.654;20.200;2023-03-13T03:44:53;57.67;;;29.42;;
59294;SDS011;45067;44.654;20.200;2023-03-13T03:47:19;54.28;;;28.40;;
59294;SDS011;45067;44.654;20.200;2023-03-13T03:49:45;72.97;;;37.10;;
59294;SDS011;45067;44.654;20.200;2023-03-13T03:52:11;77.05;;;35.63;;
59294;SDS011;45067;44.654;20.200;2023-03-13T03:54:37;49.13;;;24.75;;
59294;SDS011;45067;44.654;20.200;2023-03-13T04:02:54;36.67;;;20.40;;
59294;SDS011;45067;44.654;20.200;2023-03-13T04:05:20;38.05;;;20.15;;
59294;SDS011;45067;44.654;20.200;2023-03-13T04:07:47;41.65;;;21.55;;
59294;SDS011;45067;44.654;20.200;2023-03-13T04:10:13;37.03;;;20.60;;
59294;SDS011;45067;44.654;20.200;2023-03-13T04:12:39;43.13;;;22.23;;
59294;SDS011;45067;44.654;20.200;2023-03-13T04:15:05;63.45;;;32.55;;
59294;SDS011;45067;44.654;20.200;2023-03-13T04:17:32;80.38;;;36.65;;
59294;SDS011;45067;44.654;20.200;2023-03-13T04:19:58;67.30;;;34.22;;
59294;SDS011;45067;44.654;20.200;2023-03-13T04:22:24;70.78;;;35.83;;
59294;SDS011;45067;44.654;20.200;2023-03-13T04:24:50;62.65;;;32.40;;
59294;SDS011;45067;44.654;20.200;2023-03-13T04:27:16;59.50;;;28.92;;
59294;SDS011;45067;44.654;20.200;2023-03-13T04:29:42;68.85;;;32.65;;
59294;SDS011;45067;44.654;20.200;2023-03-13T04:32:09;64.63;;;34.25;;
59294;SDS011;45067;44.654;20.200;2023-03-13T04:34:35;72.80;;;35.67;;
59294;SDS011;45067;44.654;20.200;2023-03-13T04:37:01;73.40;;;37.00;;
59294;SDS011;45067;44.654;20.200;2023-03-13T04:39:27;74.70;;;34.47;;
59294;SDS011;45067;44.654;20.200;2023-03-13T04:44:57;65.45;;;30.88;;
59294;SDS011;45067;44.654;20.200;2023-03-13T04:47:23;71.00;;;33.40;;
59294;SDS011;45067;44.654;20.200;2023-03-13T04:49:49;66.93;;;33.55;;
59294;SDS011;45067;44.654;20.200;2023-03-13T04:52:15;57.72;;;28.50;;
59294;SDS011;45067;44.654;20.200;2023-03-13T04:54:41;69.32;;;31.98;;
59294;SDS011;45067;44.654;20.200;2023-03-13T05:00:11;52.58;;;25.98;;
59294;SDS011;45067;44.654;20.200;2023-03-13T05:02:37;44.10;;;23.05;;
59294;SDS011;45067;44.654;20.200;2023-03-13T05:05:03;48.13;;;24.80;;
59294;SDS011;45067;44.654;20.200;2023-03-13T05:07:29;44.75;;;24.00;;
59294;SDS011;45067;44.654;20.200;2023-03-13T05:09:55;47.05;;;23.23;;
59294;SDS011;45067;44.654;20.200;2023-03-13T05:15:25;35.78;;;19.48;;
59294;SDS011;45067;44.654;20.200;2023-03-13T05:17:51;40.53;;;19.73;;
59294;SDS011;45067;44.654;20.200;2023-03-13T05:20:17;35.65;;;19.25;;
59294;SDS011;45067;44.654;20.200;2023-03-13T05:22:46;40.00;;;22.02;;
59294;SDS011;45067;44.654;20.200;2023-03-13T05:25:14;36.65;;;19.52;;
59294;SDS011;45067;44.654;20.200;2023-03-13T05:27:40;37.58;;;20.55;;
59294;SDS011;45067;44.654;20.200;2023-03-13T05:30:06;40.17;;;20.90;;
59294;SDS011;45067;44.654;20.200;2023-03-13T05:32:32;41.20;;;21.45;;
59294;SDS011;45067;44.654;20.200;2023-03-13T05:34:58;39.58;;;20.52;;
59294;SDS011;45067;44.654;20.200;2023-03-13T05:37:24;36.70;;;20.17;;
59294;SDS011;45067;44.654;20.200;2023-03-13T05:39:51;40.47;;;20.77;;
59294;SDS011;45067;44.654;20.200;2023-03-13T05:45:21;38.67;;;19.95;;
59294;SDS011;45067;44.654;20.200;2023-03-13T05:47:47;47.03;;;21.98;;
59294;SDS011;45067;44.654;20.200;2023-03-13T05:50:13;39.45;;;21.70;;
59294;SDS011;45067;44.654;20.200;2023-03-13T05:52:39;43.00;;;22.85;;
59294;SDS011;45067;44.654;20.200;2023-03-13T05:55:05;51.60;;;24.00;;
59294;SDS011;45067;44.654;20.200;2023-03-13T06:00:34;44.95;;;23.17;;
59294;SDS011;45067;44.654;20.200;2023-03-13T06:03:00;41.45;;;21.95;;
59294;SDS011;45067;44.654;20.200;2023-03-13T06:05:26;44.70;;;22.63;;
59294;SDS011;45067;44.654;20.200;2023-03-13T06:07:52;39.70;;;19.75;;
59294;SDS011;45067;44.654;20.200;2023-03-13T06:10:18;38.05;;;19.63;;
59294;SDS011;45067;44.654;20.200;2023-03-13T06:12:50;40.55;;;21.10;;
59294;SDS011;45067;44.654;20.200;2023-03-13T06:15:17;37.78;;;20.17;;
59294;SDS011;45067;44.654;20.200;2023-03-13T06:17:43;38.03;;;20.00;;
59294;SDS011;45067;44.654;20.200;2023-03-13T06:20:10;36.03;;;19.05;;
59294;SDS011;45067;44.654;20.200;2023-03-13T06:22:36;32.17;;;18.65;;
59294;SDS011;45067;44.654;20.200;2023-03-13T06:25:02;38.20;;;20.38;;
59294;SDS011;45067;44.654;20.200;2023-03-13T06:30:31;30.10;;;16.30;;
59294;SDS011;45067;44.654;20.200;2023-03-13T06:32:57;37.70;;;19.50;;
59294;SDS011;45067;44.654;20.200;2023-03-13T06:35:23;35.95;;;18.92;;
59294;SDS011;45067;44.654;20.200;2023-03-13T06:37:50;33.95;;;18.05;;
59294;SDS011;45067;44.654;20.200;2023-03-13T06:40:16;33.47;;;18.10;;
59294;SDS011;45067;44.654;20.200;2023-03-13T06:45:45;26.90;;;14.50;;
59294;SDS011;45067;44.654;20.200;2023-03-13T06:48:12;21.27;;;11.95;;
59294;SDS011;45067;44.654;20.200;2023-03-13T06:50:38;19.98;;;11.18;;
59294;SDS011;45067;44.654;20.200;2023-03-13T06:53:04;17.35;;;9.18;;
59294;SDS011;45067;44.654;20.200;2023-03-13T06:55:30;15.80;;;8.85;;
59294;SDS011;45067;44.654;20.200;2023-03-13T06:57:57;16.58;;;9.23;;
59294;SDS011;45067;44.654;20.200;2023-03-13T07:00:23;17.88;;;8.63;;
59294;SDS011;45067;44.654;20.200;2023-03-13T07:02:49;16.13;;;9.13;;
59294;SDS011;45067;44.654;20.200;2023-03-13T07:05:16;11.73;;;7.40;;
59294;SDS011;45067;44.654;20.200;2023-03-13T07:07:42;15.70;;;8.40;;
59294;SDS011;45067;44.654;20.200;2023-03-13T07:10:09;15.68;;;9.00;;
59294;SDS011;45067;44.654;20.200;2023-03-13T07:15:38;15.10;;;7.95;;
59294;SDS011;45067;44.654;20.200;2023-03-13T07:18:04;12.80;;;7.90;;
59294;SDS011;45067;44.654;20.200;2023-03-13T07:20:30;14.82;;;7.72;;
59294;SDS011;45067;44.654;20.200;2023-03-13T07:22:56;12.20;;;7.22;;
59294;SDS011;45067;44.654;20.200;2023-03-13T07:25:22;13.10;;;7.30;;
59294;SDS011;45067;44.654;20.200;2023-03-13T07:30:52;10.38;;;6.70;;
59294;SDS011;45067;44.654;20.200;2023-03-13T07:33:18;12.48;;;6.95;;
59294;SDS011;45067;44.654;20.200;2023-03-13T07:35:48;12.52;;;6.60;;
59294;SDS011;45067;44.654;20.200;2023-03-13T07:38:14;11.48;;;6.72;;
59294;SDS011;45067;44.654;20.200;2023-03-13T07:40:52;11.48;;;6.00;;
59294;SDS011;45067;44.654;20.200;2023-03-13T07:43:18;11.93;;;6.72;;
59294;SDS011;45067;44.654;20.200;2023-03-13T07:45:54;11.48;;;6.55;;
59294;SDS011;45067;44.654;20.200;2023-03-13T07:48:21;11.77;;;6.68;;
59294;SDS011;45067;44.654;20.200;2023-03-13T07:50:47;15.75;;;6.55;;
59294;SDS011;45067;44.654;20.200;2023-03-13T07:53:14;11.48;;;6.47;;
59294;SDS011;45067;44.654;20.200;2023-03-13T07:56:06;10.07;;;5.50;;
59294;SDS011;45067;44.654;20.200;2023-03-13T07:58:32;8.85;;;5.38;;
59294;SDS011;45067;44.654;20.200;2023-03-13T08:00:58;10.30;;;5.55;;
59294;SDS011;45067;44.654;20.200;2023-03-13T08:03:25;8.13;;;4.95;;
59294;SDS011;45067;44.654;20.200;2023-03-13T08:06:02;8.45;;;4.97;;
59294;SDS011;45067;44.654;20.200;2023-03-13T08:08:28;12.48;;;5.82;;
59294;SDS011;45067;44.654;20.200;2023-03-13T08:11:01;9.52;;;5.63;;
59294;SDS011;45067;44.654;20.200;2023-03-13T08:13:27;10.68;;;4.90;;
59294;SDS011;45067;44.654;20.200;2023-03-13T08:16:00;9.70;;;5.07;;
59294;SDS011;45067;44.654;20.200;2023-03-13T08:18:26;10.00;;;5.55;;
59294;SDS011;45067;44.654;20.200;2023-03-13T08:20:52;9.20;;;5.22;;
59294;SDS011;45067;44.654;20.200;2023-03-13T08:23:18;8.90;;;5.13;;
59294;SDS011;45067;44.654;20.200;2023-03-13T08:25:44;10.57;;;5.07;;
59294;SDS011;45067;44.654;20.200;2023-03-13T08:31:18;9.95;;;5.50;;
59294;SDS011;45067;44.654;20.200;2023-03-13T08:33:45;10.43;;;4.72;;
59294;SDS011;45067;44.654;20.200;2023-03-13T08:36:18;8.95;;;4.90;;
59294;SDS011;45067;44.654;20.200;2023-03-13T08:38:45;9.02;;;4.60;;
59294;SDS011;45067;44.654;20.200;2023-03-13T08:41:21;7.72;;;4.45;;
59294;SDS011;45067;44.654;20.200;2023-03-13T08:43:47;6.78;;;3.53;;
59294;SDS011;45067;44.654;20.200;2023-03-13T08:46:14;6.22;;;3.88;;
59294;SDS011;45067;44.654;20.200;2023-03-13T08:48:40;9.18;;;3.78;;
59294;SDS011;45067;44.654;20.200;2023-03-13T08:53:32;4.97;;;2.90;;
59294;SDS011;45067;44.654;20.200;2023-03-13T08:55:59;6.82;;;3.28;;
59294;SDS011;45067;44.654;20.200;2023-03-13T08:58:25;6.22;;;2.88;;
59294;SDS011;45067;44.654;20.200;2023-03-13T09:00:51;6.32;;;3.10;;
59294;SDS011;45067;44.654;20.200;2023-03-13T09:03:17;6.05;;;3.00;;
59294;SDS011;45067;44.654;20.200;2023-03-13T09:05:43;5.88;;;3.20;;
59294;SDS011;45067;44.654;20.200;2023-03-13T09:08:12;5.78;;;3.25;;
59294;SDS011;45067;44.654;20.200;2023-03-13T09:10:38;5.60;;;3.08;;
59294;SDS011;45067;44.654;20.200;2023-03-13T09:16:09;7.28;;;3.05;;
59294;SDS011;45067;44.654;20.200;2023-03-13T09:18:35;5.03;;;2.53;;
59294;SDS011;45067;44.654;20.200;2023-03-13T09:21:02;4.70;;;2.45;;
59294;SDS011;45067;44.654;20.200;2023-03-13T09:23:30;5.68;;;2.97;;
59294;SDS011;45067;44.654;20.200;2023-03-13T09:25:56;3.83;;;2.42;;
59294;SDS011;45067;44.654;20.200;2023-03-13T09:31:40;5.78;;;3.00;;
59294;SDS011;45067;44.654;20.200;2023-03-13T09:34:06;6.70;;;3.10;;
59294;SDS011;45067;44.654;20.200;2023-03-13T09:36:32;5.72;;;3.08;;
59294;SDS011;45067;44.654;20.200;2023-03-13T09:38:58;5.47;;;2.97;;
59294;SDS011;45067;44.654;20.200;2023-03-13T09:41:26;8.15;;;3.55;;
59294;SDS011;45067;44.654;20.200;2023-03-13T09:46:27;7.60;;;3.55;;
59294;SDS011;45067;44.654;20.200;2023-03-13T09:48:57;6.30;;;3.30;;
59294;SDS011;45067;44.654;20.200;2023-03-13T09:51:37;5.00;;;2.85;;
59294;SDS011;45067;44.654;20.200;2023-03-13T09:54:06;5.43;;;3.17;;
59294;SDS011;45067;44.654;20.200;2023-03-13T09:56:36;8.43;;;3.50;;
59294;SDS011;45067;44.654;20.200;2023-03-13T09:59:27;5.78;;;3.50;;
59294;SDS011;45067;44.654;20.200;2023-03-13T10:01:50;8.35;;;3.33;;
59294;SDS011;45067;44.654;20.200;2023-03-13T10:04:26;5.55;;;3.30;;
59294;SDS011;45067;44.654;20.200;2023-03-13T10:06:53;5.50;;;3.28;;
59294;SDS011;45067;44.654;20.200;2023-03-13T10:09:21;6.75;;;3.05;;
59294;SDS011;45067;44.654;20.200;2023-03-13T10:14:30;6.70;;;3.83;;
59294;SDS011;45067;44.654;20.200;2023-03-13T10:17:00;5.53;;;3.50;;
59294;SDS011;45067;44.654;20.200;2023-03-13T10:19:30;10.27;;;5.60;;
59294;SDS011;45067;44.654;20.200;2023-03-13T10:21:56;10.70;;;5.40;;
59294;SDS011;45067;44.654;20.200;2023-03-13T10:24:36;7.57;;;4.30;;
59294;SDS011;45067;44.654;20.200;2023-03-13T10:27:03;8.32;;;4.00;;
59294;SDS011;45067;44.654;20.200;2023-03-13T10:29:30;7.35;;;3.63;;
59294;SDS011;45067;44.654;20.200;2023-03-13T10:31:57;8.27;;;3.58;;
59294;SDS011;45067;44.654;20.200;2023-03-13T10:34:24;7.95;;;4.15;;
59294;SDS011;45067;44.654;20.200;2023-03-13T10:36:56;8.32;;;3.97;;
59294;SDS011;45067;44.654;20.200;2023-03-13T10:39:23;8.75;;;4.20;;
59294;SDS011;45067;44.654;20.200;2023-03-13T10:41:50;14.02;;;6.85;;
59294;SDS011;45067;44.654;20.200;2023-03-13T10:46:47;8.40;;;4.82;;
59294;SDS011;45067;44.654;20.200;2023-03-13T10:49:15;6.80;;;3.50;;
59294;SDS011;45067;44.654;20.200;2023-03-13T10:51:45;9.32;;;4.32;;
59294;SDS011;45067;44.654;20.200;2023-03-13T10:56:44;7.75;;;3.90;;
59294;SDS011;45067;44.654;20.200;2023-03-13T10:59:21;5.88;;;3.65;;
59294;SDS011;45067;44.654;20.200;2023-03-13T11:01:47;6.32;;;3.83;;
59294;SDS011;45067;44.654;20.200;2023-03-13T11:04:24;8.82;;;4.53;;
59294;SDS011;45067;44.654;20.200;2023-03-13T11:06:57;7.65;;;3.90;;
59294;SDS011;45067;44.654;20.200;2023-03-13T11:09:23;6.03;;;3.45;;
59294;SDS011;45067;44.654;20.200;2023-03-13T11:11:52;6.65;;;3.78;;
59294;SDS011;45067;44.654;20.200;2023-03-13T11:14:23;6.30;;;3.90;;
59294;SDS011;45067;44.654;20.200;2023-03-13T11:16:50;7.32;;;4.13;;
59294;SDS011;45067;44.654;20.200;2023-03-13T11:24:41;6.57;;;4.10;;
59294;SDS011;45067;44.654;20.200;2023-03-13T11:29:56;6.85;;;3.75;;
59294;SDS011;45067;44.654;20.200;2023-03-13T11:32:24;5.72;;;3.47;;
59294;SDS011;45067;44.654;20.200;2023-03-13T11:34:56;6.75;;;3.78;;
59294;SDS011;45067;44.654;20.200;2023-03-13T11:37:23;5.82;;;3.42;;
59294;SDS011;45067;44.654;20.200;2023-03-13T11:45:05;6.15;;;3.75;;
59294;SDS011;45067;44.654;20.200;2023-03-13T11:52:50;6.25;;;3.72;;
59294;SDS011;45067;44.654;20.200;2023-03-13T12:03:16;7.53;;;3.63;;
59294;SDS011;45067;44.654;20.200;2023-03-13T12:05:46;6.07;;;3.53;;
59294;SDS011;45067;44.654;20.200;2023-03-13T12:08:17;6.53;;;3.80;;
59294;SDS011;45067;44.654;20.200;2023-03-13T12:10:54;6.40;;;3.25;;
59294;SDS011;45067;44.654;20.200;2023-03-13T12:13:24;8.50;;;3.80;;
59294;SDS011;45067;44.654;20.200;2023-03-13T12:15:53;6.82;;;3.33;;
59294;SDS011;45067;44.654;20.200;2023-03-13T12:18:28;8.27;;;3.78;;
59294;SDS011;45067;44.654;20.200;2023-03-13T12:20:57;6.88;;;3.58;;
59294;SDS011;45067;44.654;20.200;2023-03-13T12:26:07;6.18;;;3.00;;
59294;SDS011;45067;44.654;20.200;2023-03-13T12:28:36;5.60;;;3.15;;
59294;SDS011;45067;44.654;20.200;2023-03-13T12:31:18;5.85;;;3.22;;
59294;SDS011;45067;44.654;20.200;2023-03-13T12:36:34;6.10;;;3.63;;
59294;SDS011;45067;44.654;20.200;2023-03-13T12:44:46;7.65;;;3.88;;
59294;SDS011;45067;44.654;20.200;2023-03-13T12:47:17;7.28;;;3.70;;
59294;SDS011;45067;44.654;20.200;2023-03-13T12:49:52;6.05;;;3.45;;
59294;SDS011;45067;44.654;20.200;2023-03-13T12:52:31;5.05;;;3.75;;
59294;SDS011;45067;44.654;20.200;2023-03-13T13:00:47;5.50;;;3.75;;
59294;SDS011;45067;44.654;20.200;2023-03-13T13:05:56;5.40;;;3.85;;
59294;SDS011;45067;44.654;20.200;2023-03-13T13:08:23;6.05;;;3.90;;
59294;SDS011;45067;44.654;20.200;2023-03-13T13:10:49;4.45;;;3.70;;
59294;SDS011;45067;44.654;20.200;2023-03-13T13:16:19;5.78;;;3.60;;
59294;SDS011;45067;44.654;20.200;2023-03-13T13:18:46;5.00;;;3.85;;
59294;SDS011;45067;44.654;20.200;2023-03-13T13:21:19;6.03;;;3.63;;
59294;SDS011;45067;44.654;20.200;2023-03-13T13:23:46;8.48;;;4.10;;
59294;SDS011;45067;44.654;20.200;2023-03-13T13:32:01;6.68;;;3.95;;
59294;SDS011;45067;44.654;20.200;2023-03-13T13:36:55;7.10;;;5.00;;
59294;SDS011;45067;44.654;20.200;2023-03-13T13:39:42;4.85;;;4.13;;
59294;SDS011;45067;44.654;20.200;2023-03-13T13:45:02;5.18;;;3.90;;
59294;SDS011;45067;44.654;20.200;2023-03-13T13:47:28;5.65;;;3.72;;
59294;SDS011;45067;44.654;20.200;2023-03-13T13:49:56;5.75;;;4.22;;
59294;SDS011;45067;44.654;20.200;2023-03-13T13:52:40;5.85;;;3.80;;
59294;SDS011;45067;44.654;20.200;2023-03-13T13:58:04;4.38;;;3.70;;
59294;SDS011;45067;44.654;20.200;2023-03-13T14:00:36;4.88;;;3.88;;
59294;SDS011;45067;44.654;20.200;2023-03-13T14:03:10;4.97;;;4.10;;
59294;SDS011;45067;44.654;20.200;2023-03-13T14:05:41;6.18;;;4.88;;
59294;SDS011;45067;44.654;20.200;2023-03-13T14:08:19;5.00;;;3.45;;
59294;SDS011;45067;44.654;20.200;2023-03-13T14:11:06;4.25;;;3.28;;
59294;SDS011;45067;44.654;20.200;2023-03-13T14:13:35;7.50;;;4.25;;
59294;SDS011;45067;44.654;20.200;2023-03-13T14:16:13;6.68;;;4.50;;
59294;SDS011;45067;44.654;20.200;2023-03-13T14:18:44;4.90;;;2.90;;
59294;SDS011;45067;44.654;20.200;2023-03-13T14:21:10;3.97;;;2.97;;
59294;SDS011;45067;44.654;20.200;2023-03-13T14:23:40;3.67;;;2.90;;
59294;SDS011;45067;44.654;20.200;2023-03-13T14:28:43;4.20;;;2.90;;
59294;SDS011;45067;44.654;20.200;2023-03-13T14:31:09;4.15;;;2.95;;
59294;SDS011;45067;44.654;20.200;2023-03-13T14:33:36;5.40;;;3.42;;
59294;SDS011;45067;44.654;20.200;2023-03-13T14:36:02;5.55;;;3.58;;
59294;SDS011;45067;44.654;20.200;2023-03-13T14:38:28;5.55;;;2.97;;
59294;SDS011;45067;44.654;20.200;2023-03-13T14:40:54;5.50;;;3.67;;
59294;SDS011;45067;44.654;20.200;2023-03-13T14:45:52;4.75;;;3.00;;
59294;SDS011;45067;44.654;20.200;2023-03-13T14:48:26;6.50;;;3.75;;
59294;SDS011;45067;44.654;20.200;2023-03-13T14:51:23;8.45;;;4.20;;
59294;SDS011;45067;44.654;20.200;2023-03-13T14:53:58;5.95;;;3.40;;
59294;SDS011;45067;44.654;20.200;2023-03-13T14:59:16;8.90;;;4.10;;
59294;SDS011;45067;44.654;20.200;2023-03-13T15:01:43;13.70;;;4.72;;
59294;SDS011;45067;44.654;20.200;2023-03-13T15:04:10;11.63;;;4.90;;
59294;SDS011;45067;44.654;20.200;2023-03-13T15:06:36;11.43;;;4.35;;
59294;SDS011;45067;44.654;20.200;2023-03-13T15:11:35;8.18;;;3.92;;
59294;SDS011;45067;44.654;20.200;2023-03-13T15:14:01;10.90;;;4.38;;
59294;SDS011;45067;44.654;20.200;2023-03-13T15:16:28;11.50;;;5.07;;
59294;SDS011;45067;44.654;20.200;2023-03-13T15:18:54;9.73;;;4.47;;
59294;SDS011;45067;44.654;20.200;2023-03-13T15:21:22;9.73;;;4.68;;
59294;SDS011;45067;44.654;20.200;2023-03-13T15:24:10;8.82;;;4.65;;
59294;SDS011;45067;44.654;20.200;2023-03-13T15:26:34;7.90;;;4.18;;
59294;SDS011;45067;44.654;20.200;2023-03-13T15:29:00;8.40;;;5.13;;
59294;SDS011;45067;44.654;20.200;2023-03-13T15:31:26;7.35;;;5.00;;
59294;SDS011;45067;44.654;20.200;2023-03-13T15:33:54;8.65;;;5.70;;
59294;SDS011;45067;44.654;20.200;2023-03-13T15:36:21;13.93;;;7.28;;
59294;SDS011;45067;44.654;20.200;2023-03-13T15:38:47;15.25;;;9.40;;
59294;SDS011;45067;44.654;20.200;2023-03-13T15:41:13;11.13;;;6.90;;
59294;SDS011;45067;44.654;20.200;2023-03-13T15:43:40;10.27;;;6.13;;
59294;SDS011;45067;44.654;20.200;2023-03-13T15:46:08;12.02;;;6.55;;
59294;SDS011;45067;44.654;20.200;2023-03-13T15:48:35;11.90;;;7.75;;
59294;SDS011;45067;44.654;20.200;2023-03-13T15:51:02;15.13;;;8.48;;
59294;SDS011;45067;44.654;20.200;2023-03-13T15:53:29;16.02;;;9.15;;
59294;SDS011;45067;44.654;20.200;2023-03-13T15:55:56;13.95;;;8.00;;
59294;SDS011;45067;44.654;20.200;2023-03-13T15:58:22;15.23;;;8.25;;
59294;SDS011;45067;44.654;20.200;2023-03-13T16:00:49;14.18;;;7.95;;
59294;SDS011;45067;44.654;20.200;2023-03-13T16:03:22;16.20;;;8.93;;
59294;SDS011;45067;44.654;20.200;2023-03-13T16:05:49;16.20;;;8.68;;
59294;SDS011;45067;44.654;20.200;2023-03-13T16:08:17;24.05;;;9.88;;
59294;SDS011;45067;44.654;20.200;2023-03-13T16:10:43;20.92;;;11.65;;
59294;SDS011;45067;44.654;20.200;2023-03-13T16:13:09;19.40;;;10.15;;
59294;SDS011;45067;44.654;20.200;2023-03-13T16:15:36;17.25;;;9.27;;
59294;SDS011;45067;44.654;20.200;2023-03-13T16:18:02;20.05;;;9.98;;
59294;SDS011;45067;44.654;20.200;2023-03-13T16:20:28;30.83;;;15.98;;
59294;SDS011;45067;44.654;20.200;2023-03-13T16:22:54;30.60;;;16.52;;
59294;SDS011;45067;44.654;20.200;2023-03-13T16:25:21;31.10;;;17.13;;
59294;SDS011;45067;44.654;20.200;2023-03-13T16:27:47;32.60;;;18.17;;
59294;SDS011;45067;44.654;20.200;2023-03-13T16:33:17;21.50;;;12.45;;
59294;SDS011;45067;44.654;20.200;2023-03-13T16:35:43;22.08;;;13.50;;
59294;SDS011;45067;44.654;20.200;2023-03-13T16:38:09;35.78;;;20.75;;
59294;SDS011;45067;44.654;20.200;2023-03-13T16:40:35;37.60;;;20.50;;
59294;SDS011;45067;44.654;20.200;2023-03-13T16:43:02;28.65;;;16.10;;
59294;SDS011;45067;44.654;20.200;2023-03-13T16:45:28;21.00;;;12.93;;
59294;SDS011;45067;44.654;20.200;2023-03-13T16:47:54;16.27;;;10.07;;
59294;SDS011;45067;44.654;20.200;2023-03-13T16:50:21;17.25;;;11.27;;
59294;SDS011;45067;44.654;20.200;2023-03-13T16:52:48;20.13;;;11.05;;
59294;SDS011;45067;44.654;20.200;2023-03-13T16:55:14;17.33;;;9.88;;
59294;SDS011;45067;44.654;20.200;2023-03-13T16:57:40;20.80;;;11.57;;
59294;SDS011;45067;44.654;20.200;2023-03-13T17:03:10;18.23;;;11.57;;